sensor_id;sensor_type;location;lat;lon;timestamp;P1;durP1;ratioP1;P2;durP2;ratioP2
22005;SDS011;11167;46.988;15.470;2022-08-14T00:01:45;2.47;;;2.27;;
22005;SDS011;11167;46.988;15.470;2022-08-14T00:03:46;3.47;;;2.62;;
22005;SDS011;11167;46.988;15.470;2022-08-14T00:05:48;4.80;;;2.37;;
22005;SDS011;11167;46.988;15.470;2022-08-14T00:07:49;2.52;;;2.27;;
22005;SDS011;11167;46.988;15.470;2022-08-14T00:09:51;2.60;;;2.30;;
22005;SDS011;11167;46.988;15.470;2022-08-14T00:11:53;2.30;;;2.10;;
22005;SDS011;11167;46.988;15.470;2022-08-14T00:13:55;3.08;;;2.42;;
22005;SDS011;11167;46.988;15.470;2022-08-14T00:15:58;2.40;;;2.20;;
22005;SDS011;11167;46.988;15.470;2022-08-14T00:18:00;2.58;;;2.37;;
22005;SDS011;11167;46.988;15.470;2022-08-14T00:20:01;3.58;;;2.20;;
22005;SDS011;11167;46.988;15.470;2022-08-14T00:22:03;2.50;;;2.20;;
22005;SDS011;11167;46.988;15.470;2022-08-14T00:24:05;2.45;;;2.12;;
22005;SDS011;11167;46.988;15.470;2022-08-14T00:26:06;2.42;;;2.20;;
22005;SDS011;11167;46.988;15.470;2022-08-14T00:28:09;2.45;;;2.25;;
22005;SDS011;11167;46.988;15.470;2022-08-14T00:30:12;2.15;;;1.95;;
22005;SDS011;11167;46.988;15.470;2022-08-14T00:32:14;3.05;;;2.08;;
22005;SDS011;11167;46.988;15.470;2022-08-14T00:34:16;3.05;;;2.08;;
22005;SDS011;11167;46.988;15.470;2022-08-14T00:36:17;2.50;;;2.20;;
22005;SDS011;11167;46.988;15.470;2022-08-14T00:38:19;1.90;;;1.80;;
22005;SDS011;11167;46.988;15.470;2022-08-14T00:40:20;2.00;;;1.87;;
22005;SDS011;11167;46.988;15.470;2022-08-14T00:42:22;3.60;;;2.02;;
22005;SDS011;11167;46.988;15.470;2022-08-14T00:44:24;2.62;;;1.92;;
22005;SDS011;11167;46.988;15.470;2022-08-14T00:46:27;2.80;;;2.17;;
22005;SDS011;11167;46.988;15.470;2022-08-14T00:48:28;2.20;;;2.00;;
22005;SDS011;11167;46.988;15.470;2022-08-14T00:50:29;2.55;;;1.80;;
22005;SDS011;11167;46.988;15.470;2022-08-14T00:54:35;2.60;;;1.87;;
22005;SDS011;11167;46.988;15.470;2022-08-14T00:56:39;2.45;;;2.20;;
22005;SDS011;11167;46.988;15.470;2022-08-14T00:58:41;2.25;;;1.92;;
22005;SDS011;11167;46.988;15.470;2022-08-14T01:00:43;2.00;;;1.80;;
22005;SDS011;11167;46.988;15.470;2022-08-14T01:02:45;2.47;;;2.02;;
22005;SDS011;11167;46.988;15.470;2022-08-14T01:04:46;2.47;;;1.72;;
22005;SDS011;11167;46.988;15.470;2022-08-14T01:06:49;3.98;;;2.33;;
22005;SDS011;11167;46.988;15.470;2022-08-14T01:08:51;4.40;;;2.22;;
22005;SDS011;11167;46.988;15.470;2022-08-14T01:10:55;2.37;;;1.90;;
22005;SDS011;11167;46.988;15.470;2022-08-14T01:12:57;2.55;;;1.80;;
22005;SDS011;11167;46.988;15.470;2022-08-14T01:14:59;2.58;;;2.17;;
22005;SDS011;11167;46.988;15.470;2022-08-14T01:17:02;3.02;;;1.95;;
22005;SDS011;11167;46.988;15.470;2022-08-14T01:19:04;2.30;;;2.10;;
22005;SDS011;11167;46.988;15.470;2022-08-14T01:21:34;3.58;;;2.10;;
22005;SDS011;11167;46.988;15.470;2022-08-14T01:23:50;2.87;;;1.90;;
22005;SDS011;11167;46.988;15.470;2022-08-14T01:25:42;2.42;;;2.17;;
22005;SDS011;11167;46.988;15.470;2022-08-14T01:27:43;2.33;;;1.92;;
22005;SDS011;11167;46.988;15.470;2022-08-14T01:29:49;2.40;;;2.20;;
22005;SDS011;11167;46.988;15.470;2022-08-14T01:31:51;2.45;;;2.10;;
22005;SDS011;11167;46.988;15.470;2022-08-14T01:33:53;2.72;;;2.10;;
22005;SDS011;11167;46.988;15.470;2022-08-14T01:35:59;4.55;;;2.30;;
22005;SDS011;11167;46.988;15.470;2022-08-14T01:38:00;4.25;;;2.30;;
22005;SDS011;11167;46.988;15.470;2022-08-14T01:40:02;3.72;;;2.20;;
22005;SDS011;11167;46.988;15.470;2022-08-14T01:42:04;2.58;;;2.05;;
22005;SDS011;11167;46.988;15.470;2022-08-14T01:44:08;2.87;;;2.05;;
22005;SDS011;11167;46.988;15.470;2022-08-14T01:46:11;3.37;;;2.20;;
22005;SDS011;11167;46.988;15.470;2022-08-14T01:48:13;3.80;;;2.20;;
22005;SDS011;11167;46.988;15.470;2022-08-14T01:50:15;4.65;;;2.22;;
22005;SDS011;11167;46.988;15.470;2022-08-14T01:52:17;2.20;;;2.00;;
22005;SDS011;11167;46.988;15.470;2022-08-14T01:54:20;2.42;;;2.20;;
22005;SDS011;11167;46.988;15.470;2022-08-14T01:56:24;2.87;;;2.12;;
22005;SDS011;11167;46.988;15.470;2022-08-14T01:58:35;2.37;;;2.17;;
22005;SDS011;11167;46.988;15.470;2022-08-14T02:00:37;3.05;;;2.10;;
22005;SDS011;11167;46.988;15.470;2022-08-14T02:02:39;3.15;;;2.33;;
22005;SDS011;11167;46.988;15.470;2022-08-14T02:04:40;3.55;;;1.90;;
22005;SDS011;11167;46.988;15.470;2022-08-14T02:06:41;3.50;;;2.20;;
22005;SDS011;11167;46.988;15.470;2022-08-14T02:08:44;3.60;;;2.30;;
22005;SDS011;11167;46.988;15.470;2022-08-14T02:10:45;2.60;;;2.02;;
22005;SDS011;11167;46.988;15.470;2022-08-14T02:12:48;2.22;;;2.02;;
22005;SDS011;11167;46.988;15.470;2022-08-14T02:14:49;2.72;;;2.30;;
22005;SDS011;11167;46.988;15.470;2022-08-14T02:16:51;4.28;;;2.40;;
22005;SDS011;11167;46.988;15.470;2022-08-14T02:18:53;6.08;;;2.47;;
22005;SDS011;11167;46.988;15.470;2022-08-14T02:20:56;5.47;;;2.47;;
22005;SDS011;11167;46.988;15.470;2022-08-14T02:22:59;3.47;;;2.20;;
22005;SDS011;11167;46.988;15.470;2022-08-14T02:25:00;3.37;;;2.27;;
22005;SDS011;11167;46.988;15.470;2022-08-14T02:27:02;4.85;;;2.27;;
22005;SDS011;11167;46.988;15.470;2022-08-14T02:31:09;2.42;;;2.22;;
22005;SDS011;11167;46.988;15.470;2022-08-14T02:33:11;2.60;;;2.40;;
22005;SDS011;11167;46.988;15.470;2022-08-14T02:35:12;2.40;;;2.20;;
22005;SDS011;11167;46.988;15.470;2022-08-14T02:37:15;4.00;;;2.33;;
22005;SDS011;11167;46.988;15.470;2022-08-14T02:39:17;3.40;;;2.22;;
22005;SDS011;11167;46.988;15.470;2022-08-14T02:41:19;2.87;;;2.30;;
22005;SDS011;11167;46.988;15.470;2022-08-14T02:43:20;2.70;;;2.00;;
22005;SDS011;11167;46.988;15.470;2022-08-14T02:45:22;2.90;;;2.30;;
22005;SDS011;11167;46.988;15.470;2022-08-14T02:47:23;2.30;;;2.10;;
22005;SDS011;11167;46.988;15.470;2022-08-14T02:49:26;3.08;;;2.12;;
22005;SDS011;11167;46.988;15.470;2022-08-14T02:51:28;3.00;;;2.25;;
22005;SDS011;11167;46.988;15.470;2022-08-14T02:53:29;2.30;;;2.10;;
22005;SDS011;11167;46.988;15.470;2022-08-14T02:55:31;4.47;;;2.15;;
22005;SDS011;11167;46.988;15.470;2022-08-14T02:57:32;2.45;;;2.20;;
22005;SDS011;11167;46.988;15.470;2022-08-14T02:59:34;3.65;;;2.15;;
22005;SDS011;11167;46.988;15.470;2022-08-14T03:01:36;3.67;;;2.25;;
22005;SDS011;11167;46.988;15.470;2022-08-14T03:03:37;2.40;;;2.15;;
22005;SDS011;11167;46.988;15.470;2022-08-14T03:05:38;3.17;;;2.20;;
22005;SDS011;11167;46.988;15.470;2022-08-14T03:07:40;4.08;;;2.27;;
22005;SDS011;11167;46.988;15.470;2022-08-14T03:09:41;2.20;;;2.00;;
22005;SDS011;11167;46.988;15.470;2022-08-14T03:11:42;3.70;;;2.30;;
22005;SDS011;11167;46.988;15.470;2022-08-14T03:13:45;2.87;;;2.22;;
22005;SDS011;11167;46.988;15.470;2022-08-14T03:15:49;2.30;;;2.10;;
22005;SDS011;11167;46.988;15.470;2022-08-14T03:17:53;2.47;;;1.87;;
22005;SDS011;11167;46.988;15.470;2022-08-14T03:19:54;2.72;;;1.80;;
22005;SDS011;11167;46.988;15.470;2022-08-14T03:21:55;2.15;;;1.92;;
22005;SDS011;11167;46.988;15.470;2022-08-14T03:23:56;4.10;;;2.20;;
22005;SDS011;11167;46.988;15.470;2022-08-14T03:26:14;3.00;;;2.00;;
22005;SDS011;11167;46.988;15.470;2022-08-14T03:28:17;3.37;;;1.80;;
22005;SDS011;11167;46.988;15.470;2022-08-14T03:30:18;2.45;;;1.98;;
22005;SDS011;11167;46.988;15.470;2022-08-14T03:32:19;2.17;;;1.98;;
22005;SDS011;11167;46.988;15.470;2022-08-14T03:34:20;2.37;;;1.90;;
22005;SDS011;11167;46.988;15.470;2022-08-14T03:36:26;2.52;;;1.80;;
22005;SDS011;11167;46.988;15.470;2022-08-14T03:38:27;4.83;;;1.90;;
22005;SDS011;11167;46.988;15.470;2022-08-14T03:40:37;4.62;;;2.08;;
22005;SDS011;11167;46.988;15.470;2022-08-14T03:42:39;4.83;;;2.10;;
22005;SDS011;11167;46.988;15.470;2022-08-14T03:44:40;2.90;;;1.77;;
22005;SDS011;11167;46.988;15.470;2022-08-14T03:46:43;2.50;;;2.05;;
22005;SDS011;11167;46.988;15.470;2022-08-14T03:48:44;2.72;;;2.27;;
22005;SDS011;11167;46.988;15.470;2022-08-14T03:50:46;2.90;;;2.15;;
22005;SDS011;11167;46.988;15.470;2022-08-14T03:52:51;2.40;;;2.00;;
22005;SDS011;11167;46.988;15.470;2022-08-14T03:54:52;2.55;;;2.10;;
22005;SDS011;11167;46.988;15.470;2022-08-14T03:56:53;3.20;;;1.90;;
22005;SDS011;11167;46.988;15.470;2022-08-14T03:58:57;2.55;;;1.85;;
22005;SDS011;11167;46.988;15.470;2022-08-14T04:01:02;2.15;;;1.77;;
22005;SDS011;11167;46.988;15.470;2022-08-14T04:03:06;2.98;;;2.00;;
22005;SDS011;11167;46.988;15.470;2022-08-14T04:05:08;2.17;;;1.80;;
22005;SDS011;11167;46.988;15.470;2022-08-14T04:07:10;5.37;;;2.02;;
22005;SDS011;11167;46.988;15.470;2022-08-14T04:09:11;2.98;;;2.10;;
22005;SDS011;11167;46.988;15.470;2022-08-14T04:11:12;2.42;;;2.05;;
22005;SDS011;11167;46.988;15.470;2022-08-14T04:13:14;2.60;;;2.00;;
22005;SDS011;11167;46.988;15.470;2022-08-14T04:15:17;2.15;;;1.95;;
22005;SDS011;11167;46.988;15.470;2022-08-14T04:17:20;3.02;;;2.00;;
22005;SDS011;11167;46.988;15.470;2022-08-14T04:19:22;2.20;;;2.00;;
22005;SDS011;11167;46.988;15.470;2022-08-14T04:21:24;1.98;;;1.82;;
22005;SDS011;11167;46.988;15.470;2022-08-14T04:23:29;1.87;;;1.70;;
22005;SDS011;11167;46.988;15.470;2022-08-14T04:25:34;3.67;;;2.17;;
22005;SDS011;11167;46.988;15.470;2022-08-14T04:27:36;2.27;;;2.08;;
22005;SDS011;11167;46.988;15.470;2022-08-14T04:29:38;3.25;;;2.02;;
22005;SDS011;11167;46.988;15.470;2022-08-14T04:31:41;3.33;;;1.95;;
22005;SDS011;11167;46.988;15.470;2022-08-14T04:33:43;3.05;;;2.35;;
22005;SDS011;11167;46.988;15.470;2022-08-14T04:35:44;2.02;;;1.82;;
22005;SDS011;11167;46.988;15.470;2022-08-14T04:37:46;2.75;;;2.00;;
22005;SDS011;11167;46.988;15.470;2022-08-14T04:40:05;3.85;;;1.72;;
22005;SDS011;11167;46.988;15.470;2022-08-14T04:42:26;2.20;;;2.00;;
22005;SDS011;11167;46.988;15.470;2022-08-14T04:44:45;2.22;;;2.00;;
22005;SDS011;11167;46.988;15.470;2022-08-14T04:46:47;2.15;;;1.95;;
22005;SDS011;11167;46.988;15.470;2022-08-14T04:49:06;2.92;;;2.00;;
22005;SDS011;11167;46.988;15.470;2022-08-14T04:51:08;2.85;;;2.02;;
22005;SDS011;11167;46.988;15.470;2022-08-14T04:53:12;1.80;;;1.70;;
22005;SDS011;11167;46.988;15.470;2022-08-14T04:55:15;2.37;;;2.15;;
22005;SDS011;11167;46.988;15.470;2022-08-14T04:57:16;4.28;;;2.10;;
22005;SDS011;11167;46.988;15.470;2022-08-14T04:59:17;1.80;;;1.70;;
22005;SDS011;11167;46.988;15.470;2022-08-14T05:01:18;2.35;;;2.00;;
22005;SDS011;11167;46.988;15.470;2022-08-14T05:03:21;6.92;;;2.35;;
22005;SDS011;11167;46.988;15.470;2022-08-14T05:05:30;2.22;;;1.85;;
22005;SDS011;11167;46.988;15.470;2022-08-14T05:07:32;4.58;;;2.00;;
22005;SDS011;11167;46.988;15.470;2022-08-14T05:09:33;2.17;;;1.98;;
22005;SDS011;11167;46.988;15.470;2022-08-14T05:11:34;1.98;;;1.77;;
22005;SDS011;11167;46.988;15.470;2022-08-14T05:13:35;2.37;;;1.92;;
22005;SDS011;11167;46.988;15.470;2022-08-14T05:15:37;2.95;;;1.98;;
22005;SDS011;11167;46.988;15.470;2022-08-14T05:17:41;4.03;;;2.03;;
22005;SDS011;11167;46.988;15.470;2022-08-14T05:19:44;2.70;;;2.05;;
22005;SDS011;11167;46.988;15.470;2022-08-14T05:21:45;2.10;;;1.80;;
22005;SDS011;11167;46.988;15.470;2022-08-14T05:23:46;1.82;;;1.70;;
22005;SDS011;11167;46.988;15.470;2022-08-14T05:25:48;2.00;;;1.70;;
22005;SDS011;11167;46.988;15.470;2022-08-14T05:27:53;2.22;;;2.02;;
22005;SDS011;11167;46.988;15.470;2022-08-14T05:29:56;1.90;;;1.80;;
22005;SDS011;11167;46.988;15.470;2022-08-14T05:31:57;4.12;;;1.95;;
22005;SDS011;11167;46.988;15.470;2022-08-14T05:34:00;3.47;;;1.90;;
22005;SDS011;11167;46.988;15.470;2022-08-14T05:36:03;2.02;;;1.85;;
22005;SDS011;11167;46.988;15.470;2022-08-14T05:38:07;2.83;;;2.08;;
22005;SDS011;11167;46.988;15.470;2022-08-14T05:40:09;2.25;;;2.05;;
22005;SDS011;11167;46.988;15.470;2022-08-14T05:42:10;2.15;;;1.87;;
22005;SDS011;11167;46.988;15.470;2022-08-14T05:44:13;2.22;;;1.98;;
22005;SDS011;11167;46.988;15.470;2022-08-14T05:46:14;2.47;;;1.90;;
22005;SDS011;11167;46.988;15.470;2022-08-14T05:48:21;2.52;;;2.17;;
22005;SDS011;11167;46.988;15.470;2022-08-14T05:50:22;3.70;;;1.98;;
22005;SDS011;11167;46.988;15.470;2022-08-14T05:52:23;1.92;;;1.80;;
22005;SDS011;11167;46.988;15.470;2022-08-14T05:54:24;2.30;;;2.02;;
22005;SDS011;11167;46.988;15.470;2022-08-14T05:56:26;2.40;;;2.17;;
22005;SDS011;11167;46.988;15.470;2022-08-14T05:58:27;4.92;;;2.42;;
22005;SDS011;11167;46.988;15.470;2022-08-14T06:00:33;2.50;;;2.20;;
22005;SDS011;11167;46.988;15.470;2022-08-14T06:02:33;2.37;;;2.17;;
22005;SDS011;11167;46.988;15.470;2022-08-14T06:04:37;3.72;;;2.20;;
22005;SDS011;11167;46.988;15.470;2022-08-14T06:06:38;2.65;;;2.45;;
22005;SDS011;11167;46.988;15.470;2022-08-14T06:08:39;2.30;;;2.05;;
22005;SDS011;11167;46.988;15.470;2022-08-14T06:10:43;2.50;;;2.30;;
22005;SDS011;11167;46.988;15.470;2022-08-14T06:14:45;3.92;;;2.37;;
22005;SDS011;11167;46.988;15.470;2022-08-14T06:16:47;2.65;;;2.40;;
22005;SDS011;11167;46.988;15.470;2022-08-14T06:18:48;3.47;;;2.20;;
22005;SDS011;11167;46.988;15.470;2022-08-14T06:20:49;3.10;;;2.30;;
22005;SDS011;11167;46.988;15.470;2022-08-14T06:22:50;3.17;;;2.50;;
22005;SDS011;11167;46.988;15.470;2022-08-14T06:24:51;2.85;;;2.30;;
22005;SDS011;11167;46.988;15.470;2022-08-14T06:26:53;2.62;;;2.20;;
22005;SDS011;11167;46.988;15.470;2022-08-14T06:28:54;2.37;;;2.17;;
22005;SDS011;11167;46.988;15.470;2022-08-14T06:30:55;2.02;;;1.92;;
22005;SDS011;11167;46.988;15.470;2022-08-14T06:32:56;2.87;;;2.12;;
22005;SDS011;11167;46.988;15.470;2022-08-14T06:34:58;2.37;;;2.17;;
22005;SDS011;11167;46.988;15.470;2022-08-14T06:37:00;2.50;;;2.30;;
22005;SDS011;11167;46.988;15.470;2022-08-14T06:39:01;2.47;;;2.27;;
22005;SDS011;11167;46.988;15.470;2022-08-14T06:41:02;2.45;;;2.25;;
22005;SDS011;11167;46.988;15.470;2022-08-14T06:43:04;2.42;;;2.20;;
22005;SDS011;11167;46.988;15.470;2022-08-14T06:45:08;2.50;;;2.30;;
22005;SDS011;11167;46.988;15.470;2022-08-14T06:47:10;2.10;;;1.90;;
22005;SDS011;11167;46.988;15.470;2022-08-14T06:49:12;2.42;;;2.20;;
22005;SDS011;11167;46.988;15.470;2022-08-14T06:51:13;2.33;;;2.12;;
22005;SDS011;11167;46.988;15.470;2022-08-14T06:53:14;2.35;;;2.15;;
22005;SDS011;11167;46.988;15.470;2022-08-14T06:55:17;2.33;;;2.12;;
22005;SDS011;11167;46.988;15.470;2022-08-14T06:57:18;3.60;;;2.25;;
22005;SDS011;11167;46.988;15.470;2022-08-14T06:59:19;2.58;;;2.37;;
22005;SDS011;11167;46.988;15.470;2022-08-14T07:01:20;2.62;;;2.37;;
22005;SDS011;11167;46.988;15.470;2022-08-14T07:03:40;2.62;;;2.42;;
22005;SDS011;11167;46.988;15.470;2022-08-14T07:06:03;2.52;;;2.33;;
22005;SDS011;11167;46.988;15.470;2022-08-14T07:10:06;2.20;;;2.00;;
22005;SDS011;11167;46.988;15.470;2022-08-14T07:12:08;2.60;;;2.40;;
22005;SDS011;11167;46.988;15.470;2022-08-14T07:14:09;2.67;;;2.12;;
22005;SDS011;11167;46.988;15.470;2022-08-14T07:16:10;2.40;;;2.17;;
22005;SDS011;11167;46.988;15.470;2022-08-14T07:18:12;2.55;;;2.35;;
22005;SDS011;11167;46.988;15.470;2022-08-14T07:20:13;2.47;;;2.27;;
22005;SDS011;11167;46.988;15.470;2022-08-14T07:22:17;2.42;;;2.22;;
22005;SDS011;11167;46.988;15.470;2022-08-14T07:24:18;2.83;;;2.37;;
22005;SDS011;11167;46.988;15.470;2022-08-14T07:26:19;2.72;;;2.08;;
22005;SDS011;11167;46.988;15.470;2022-08-14T07:28:22;2.30;;;2.10;;
22005;SDS011;11167;46.988;15.470;2022-08-14T07:30:26;2.30;;;2.10;;
22005;SDS011;11167;46.988;15.470;2022-08-14T07:32:27;2.30;;;2.10;;
22005;SDS011;11167;46.988;15.470;2022-08-14T07:34:28;2.40;;;2.20;;
22005;SDS011;11167;46.988;15.470;2022-08-14T07:36:29;2.45;;;2.20;;
22005;SDS011;11167;46.988;15.470;2022-08-14T07:38:30;2.80;;;2.60;;
22005;SDS011;11167;46.988;15.470;2022-08-14T07:40:32;2.45;;;2.25;;
22005;SDS011;11167;46.988;15.470;2022-08-14T07:42:34;2.45;;;2.25;;
22005;SDS011;11167;46.988;15.470;2022-08-14T07:44:36;2.35;;;2.15;;
22005;SDS011;11167;46.988;15.470;2022-08-14T07:46:37;2.40;;;2.20;;
22005;SDS011;11167;46.988;15.470;2022-08-14T07:48:38;2.58;;;2.37;;
22005;SDS011;11167;46.988;15.470;2022-08-14T07:50:42;2.42;;;2.22;;
22005;SDS011;11167;46.988;15.470;2022-08-14T07:52:45;2.45;;;2.25;;
22005;SDS011;11167;46.988;15.470;2022-08-14T07:54:47;2.87;;;2.58;;
22005;SDS011;11167;46.988;15.470;2022-08-14T07:56:48;2.47;;;2.27;;
22005;SDS011;11167;46.988;15.470;2022-08-14T07:58:50;2.30;;;2.10;;
22005;SDS011;11167;46.988;15.470;2022-08-14T08:00:55;2.50;;;2.30;;
22005;SDS011;11167;46.988;15.470;2022-08-14T08:02:56;2.52;;;2.33;;
22005;SDS011;11167;46.988;15.470;2022-08-14T08:04:58;3.58;;;2.40;;
22005;SDS011;11167;46.988;15.470;2022-08-14T08:07:02;2.33;;;2.12;;
22005;SDS011;11167;46.988;15.470;2022-08-14T08:09:03;2.45;;;2.25;;
22005;SDS011;11167;46.988;15.470;2022-08-14T08:11:07;2.25;;;2.05;;
22005;SDS011;11167;46.988;15.470;2022-08-14T08:13:15;2.80;;;2.60;;
22005;SDS011;11167;46.988;15.470;2022-08-14T08:15:19;2.70;;;2.50;;
22005;SDS011;11167;46.988;15.470;2022-08-14T08:17:21;2.80;;;2.60;;
22005;SDS011;11167;46.988;15.470;2022-08-14T08:19:23;2.60;;;2.40;;
22005;SDS011;11167;46.988;15.470;2022-08-14T08:21:25;2.50;;;2.30;;
22005;SDS011;11167;46.988;15.470;2022-08-14T08:23:28;2.70;;;2.50;;
22005;SDS011;11167;46.988;15.470;2022-08-14T08:25:34;2.80;;;2.60;;
22005;SDS011;11167;46.988;15.470;2022-08-14T08:29:38;2.87;;;2.60;;
22005;SDS011;11167;46.988;15.470;2022-08-14T08:31:45;3.00;;;2.70;;
22005;SDS011;11167;46.988;15.470;2022-08-14T08:33:52;2.60;;;2.40;;
22005;SDS011;11167;46.988;15.470;2022-08-14T08:35:56;2.70;;;2.50;;
22005;SDS011;11167;46.988;15.470;2022-08-14T08:38:02;3.10;;;2.80;;
22005;SDS011;11167;46.988;15.470;2022-08-14T08:40:09;2.50;;;2.30;;
22005;SDS011;11167;46.988;15.470;2022-08-14T08:42:11;2.60;;;2.40;;
22005;SDS011;11167;46.988;15.470;2022-08-14T08:44:12;2.67;;;2.47;;
22005;SDS011;11167;46.988;15.470;2022-08-14T08:46:17;2.85;;;2.60;;
22005;SDS011;11167;46.988;15.470;2022-08-14T08:48:21;3.30;;;2.60;;
22005;SDS011;11167;46.988;15.470;2022-08-14T08:50:27;2.87;;;2.58;;
22005;SDS011;11167;46.988;15.470;2022-08-14T08:52:30;2.80;;;2.60;;
22005;SDS011;11167;46.988;15.470;2022-08-14T08:54:31;3.12;;;2.60;;
22005;SDS011;11167;46.988;15.470;2022-08-14T08:56:33;2.98;;;2.67;;
22005;SDS011;11167;46.988;15.470;2022-08-14T08:58:45;3.25;;;2.72;;
22005;SDS011;11167;46.988;15.470;2022-08-14T09:00:47;2.83;;;2.62;;
22005;SDS011;11167;46.988;15.470;2022-08-14T09:02:52;2.67;;;2.47;;
22005;SDS011;11167;46.988;15.470;2022-08-14T09:05:02;2.83;;;2.62;;
22005;SDS011;11167;46.988;15.470;2022-08-14T09:07:04;2.98;;;2.77;;
22005;SDS011;11167;46.988;15.470;2022-08-14T09:09:15;2.70;;;2.50;;
22005;SDS011;11167;46.988;15.470;2022-08-14T09:11:22;3.72;;;2.60;;
22005;SDS011;11167;46.988;15.470;2022-08-14T09:13:24;2.80;;;2.60;;
22005;SDS011;11167;46.988;15.470;2022-08-14T09:15:26;3.10;;;2.80;;
22005;SDS011;11167;46.988;15.470;2022-08-14T09:17:28;3.10;;;2.90;;
22005;SDS011;11167;46.988;15.470;2022-08-14T09:19:29;2.67;;;2.40;;
22005;SDS011;11167;46.988;15.470;2022-08-14T09:21:30;3.12;;;2.83;;
22005;SDS011;11167;46.988;15.470;2022-08-14T09:23:33;3.00;;;2.80;;
22005;SDS011;11167;46.988;15.470;2022-08-14T09:25:37;3.00;;;2.70;;
22005;SDS011;11167;46.988;15.470;2022-08-14T09:27:41;2.90;;;2.70;;
22005;SDS011;11167;46.988;15.470;2022-08-14T09:29:43;3.00;;;2.80;;
22005;SDS011;11167;46.988;15.470;2022-08-14T09:31:45;3.00;;;2.80;;
22005;SDS011;11167;46.988;15.470;2022-08-14T09:38:42;3.27;;;3.00;;
22005;SDS011;11167;46.988;15.470;2022-08-14T09:40:58;3.10;;;2.80;;
22005;SDS011;11167;46.988;15.470;2022-08-14T09:47:49;4.70;;;2.98;;
22005;SDS011;11167;46.988;15.470;2022-08-14T09:49:52;2.90;;;2.70;;
22005;SDS011;11167;46.988;15.470;2022-08-14T09:52:00;2.80;;;2.60;;
22005;SDS011;11167;46.988;15.470;2022-08-14T09:54:05;3.22;;;2.98;;
22005;SDS011;11167;46.988;15.470;2022-08-14T09:56:09;2.92;;;2.72;;
22005;SDS011;11167;46.988;15.470;2022-08-14T09:58:13;3.40;;;3.10;;
22005;SDS011;11167;46.988;15.470;2022-08-14T10:00:17;4.15;;;2.98;;
22005;SDS011;11167;46.988;15.470;2022-08-14T10:02:20;5.17;;;3.62;;
22005;SDS011;11167;46.988;15.470;2022-08-14T10:04:24;3.30;;;3.00;;
22005;SDS011;11167;46.988;15.470;2022-08-14T10:06:29;3.02;;;2.72;;
22005;SDS011;11167;46.988;15.470;2022-08-14T10:08:38;3.00;;;2.80;;
22005;SDS011;11167;46.988;15.470;2022-08-14T10:10:41;3.35;;;3.05;;
22005;SDS011;11167;46.988;15.470;2022-08-14T10:12:47;3.05;;;2.85;;
22005;SDS011;11167;46.988;15.470;2022-08-14T10:14:48;3.15;;;2.85;;
22005;SDS011;11167;46.988;15.470;2022-08-14T10:16:50;2.77;;;2.58;;
22005;SDS011;11167;46.988;15.470;2022-08-14T10:19:04;3.27;;;2.98;;
22005;SDS011;11167;46.988;15.470;2022-08-14T10:21:08;3.45;;;3.12;;
22005;SDS011;11167;46.988;15.470;2022-08-14T10:23:13;3.20;;;2.90;;
22005;SDS011;11167;46.988;15.470;2022-08-14T10:25:17;3.35;;;3.05;;
22005;SDS011;11167;46.988;15.470;2022-08-14T10:27:20;3.15;;;2.85;;
22005;SDS011;11167;46.988;15.470;2022-08-14T10:29:34;3.00;;;2.80;;
22005;SDS011;11167;46.988;15.470;2022-08-14T10:31:34;3.05;;;2.85;;
22005;SDS011;11167;46.988;15.470;2022-08-14T10:33:36;3.17;;;2.98;;
22005;SDS011;11167;46.988;15.470;2022-08-14T10:35:45;3.30;;;3.00;;
22005;SDS011;11167;46.988;15.470;2022-08-14T10:37:45;2.95;;;2.70;;
22005;SDS011;11167;46.988;15.470;2022-08-14T10:40:01;3.55;;;3.25;;
22005;SDS011;11167;46.988;15.470;2022-08-14T10:42:05;3.62;;;3.33;;
22005;SDS011;11167;46.988;15.470;2022-08-14T10:44:12;3.27;;;3.08;;
22005;SDS011;11167;46.988;15.470;2022-08-14T10:46:18;3.45;;;3.10;;
22005;SDS011;11167;46.988;15.470;2022-08-14T10:48:20;3.90;;;3.60;;
22005;SDS011;11167;46.988;15.470;2022-08-14T10:50:30;3.62;;;3.33;;
22005;SDS011;11167;46.988;15.470;2022-08-14T10:52:33;3.70;;;3.40;;
22005;SDS011;11167;46.988;15.470;2022-08-14T10:54:39;3.67;;;3.37;;
22005;SDS011;11167;46.988;15.470;2022-08-14T10:56:42;3.90;;;3.47;;
22005;SDS011;11167;46.988;15.470;2022-08-14T10:58:44;3.52;;;3.22;;
22005;SDS011;11167;46.988;15.470;2022-08-14T11:00:52;3.60;;;3.30;;
22005;SDS011;11167;46.988;15.470;2022-08-14T11:03:06;3.30;;;3.00;;
22005;SDS011;11167;46.988;15.470;2022-08-14T11:05:10;3.50;;;3.20;;
22005;SDS011;11167;46.988;15.470;2022-08-14T11:07:17;3.37;;;3.10;;
22005;SDS011;11167;46.988;15.470;2022-08-14T11:09:18;3.35;;;3.08;;
22005;SDS011;11167;46.988;15.470;2022-08-14T11:11:19;3.50;;;3.20;;
22005;SDS011;11167;46.988;15.470;2022-08-14T11:13:23;3.65;;;3.35;;
22005;SDS011;11167;46.988;15.470;2022-08-14T11:15:27;3.37;;;3.08;;
22005;SDS011;11167;46.988;15.470;2022-08-14T11:17:32;3.42;;;2.90;;
22005;SDS011;11167;46.988;15.470;2022-08-14T11:19:35;3.02;;;2.83;;
22005;SDS011;11167;46.988;15.470;2022-08-14T11:21:38;3.40;;;3.10;;
22005;SDS011;11167;46.988;15.470;2022-08-14T11:23:40;3.55;;;3.25;;
22005;SDS011;11167;46.988;15.470;2022-08-14T11:25:44;3.10;;;2.90;;
22005;SDS011;11167;46.988;15.470;2022-08-14T11:27:46;3.47;;;3.20;;
22005;SDS011;11167;46.988;15.470;2022-08-14T11:29:47;3.70;;;3.20;;
22005;SDS011;11167;46.988;15.470;2022-08-14T11:31:50;3.55;;;3.25;;
22005;SDS011;11167;46.988;15.470;2022-08-14T11:33:54;3.05;;;2.80;;
22005;SDS011;11167;46.988;15.470;2022-08-14T11:35:57;3.95;;;3.45;;
22005;SDS011;11167;46.988;15.470;2022-08-14T11:38:01;3.52;;;3.22;;
22005;SDS011;11167;46.988;15.470;2022-08-14T11:40:14;3.60;;;3.30;;
22005;SDS011;11167;46.988;15.470;2022-08-14T11:42:20;3.70;;;3.40;;
22005;SDS011;11167;46.988;15.470;2022-08-14T11:44:26;3.70;;;3.40;;
22005;SDS011;11167;46.988;15.470;2022-08-14T11:46:27;3.50;;;3.20;;
22005;SDS011;11167;46.988;15.470;2022-08-14T11:48:28;3.58;;;3.27;;
22005;SDS011;11167;46.988;15.470;2022-08-14T11:50:31;3.40;;;3.10;;
22005;SDS011;11167;46.988;15.470;2022-08-14T11:52:34;3.42;;;3.12;;
22005;SDS011;11167;46.988;15.470;2022-08-14T11:54:38;3.60;;;3.30;;
22005;SDS011;11167;46.988;15.470;2022-08-14T11:56:39;3.30;;;3.00;;
22005;SDS011;11167;46.988;15.470;2022-08-14T11:58:41;3.65;;;3.35;;
22005;SDS011;11167;46.988;15.470;2022-08-14T12:00:49;3.65;;;3.35;;
22005;SDS011;11167;46.988;15.470;2022-08-14T12:02:57;3.60;;;3.30;;
22005;SDS011;11167;46.988;15.470;2022-08-14T12:05:00;3.37;;;3.10;;
22005;SDS011;11167;46.988;15.470;2022-08-14T12:07:05;3.40;;;3.10;;
22005;SDS011;11167;46.988;15.470;2022-08-14T12:09:06;3.67;;;3.37;;
22005;SDS011;11167;46.988;15.470;2022-08-14T12:11:08;3.80;;;3.50;;
22005;SDS011;11167;46.988;15.470;2022-08-14T12:13:13;3.60;;;3.30;;
22005;SDS011;11167;46.988;15.470;2022-08-14T12:17:47;3.37;;;3.08;;
22005;SDS011;11167;46.988;15.470;2022-08-14T12:19:50;3.75;;;3.45;;
22005;SDS011;11167;46.988;15.470;2022-08-14T12:21:53;3.50;;;3.20;;
22005;SDS011;11167;46.988;15.470;2022-08-14T12:24:08;3.52;;;3.22;;
22005;SDS011;11167;46.988;15.470;2022-08-14T12:26:17;3.72;;;3.42;;
22005;SDS011;11167;46.988;15.470;2022-08-14T12:28:20;3.67;;;3.27;;
22005;SDS011;11167;46.988;15.470;2022-08-14T12:30:32;3.60;;;3.30;;
22005;SDS011;11167;46.988;15.470;2022-08-14T12:32:41;3.45;;;3.15;;
22005;SDS011;11167;46.988;15.470;2022-08-14T12:34:51;3.30;;;3.00;;